sensor_id;sensor_type;location;lat;lon;timestamp;P1;durP1;ratioP1;P2;durP2;ratioP2
21814;SDS011;11069;48.988;8.450;2023-12-22T00:01:26;6.20;;;2.28;;
21814;SDS011;11069;48.988;8.450;2023-12-22T00:03:52;7.30;;;2.17;;
21814;SDS011;11069;48.988;8.450;2023-12-22T00:06:18;5.57;;;2.40;;
21814;SDS011;11069;48.988;8.450;2023-12-22T00:08:43;6.35;;;2.13;;
21814;SDS011;11069;48.988;8.450;2023-12-22T00:11:09;6.07;;;1.85;;
21814;SDS011;11069;48.988;8.450;2023-12-22T00:13:35;7.57;;;2.40;;
21814;SDS011;11069;48.988;8.450;2023-12-22T00:16:00;7.03;;;2.03;;
21814;SDS011;11069;48.988;8.450;2023-12-22T00:18:26;8.40;;;2.40;;
21814;SDS011;11069;48.988;8.450;2023-12-22T00:20:52;11.38;;;2.35;;
21814;SDS011;11069;48.988;8.450;2023-12-22T00:23:18;7.90;;;2.28;;
21814;SDS011;11069;48.988;8.450;2023-12-22T00:25:43;5.10;;;1.60;;
21814;SDS011;11069;48.988;8.450;2023-12-22T00:28:09;9.23;;;1.95;;
21814;SDS011;11069;48.988;8.450;2023-12-22T00:30:35;8.25;;;2.20;;
21814;SDS011;11069;48.988;8.450;2023-12-22T00:33:00;5.47;;;1.83;;
21814;SDS011;11069;48.988;8.450;2023-12-22T00:35:26;7.25;;;2.05;;
21814;SDS011;11069;48.988;8.450;2023-12-22T00:37:51;6.40;;;1.95;;
21814;SDS011;11069;48.988;8.450;2023-12-22T00:40:18;6.13;;;1.98;;
21814;SDS011;11069;48.988;8.450;2023-12-22T00:42:43;5.47;;;1.80;;
21814;SDS011;11069;48.988;8.450;2023-12-22T00:45:09;6.05;;;1.85;;
21814;SDS011;11069;48.988;8.450;2023-12-22T00:47:35;5.00;;;1.75;;
21814;SDS011;11069;48.988;8.450;2023-12-22T00:50:01;8.02;;;1.77;;
21814;SDS011;11069;48.988;8.450;2023-12-22T00:52:27;9.07;;;2.33;;
21814;SDS011;11069;48.988;8.450;2023-12-22T00:54:53;5.75;;;2.10;;
21814;SDS011;11069;48.988;8.450;2023-12-22T00:57:18;5.28;;;2.10;;
21814;SDS011;11069;48.988;8.450;2023-12-22T00:59:44;7.13;;;2.03;;
21814;SDS011;11069;48.988;8.450;2023-12-22T01:02:15;5.70;;;2.10;;
21814;SDS011;11069;48.988;8.450;2023-12-22T01:04:41;5.25;;;1.67;;
21814;SDS011;11069;48.988;8.450;2023-12-22T01:07:07;7.65;;;1.77;;
21814;SDS011;11069;48.988;8.450;2023-12-22T01:09:34;3.53;;;1.42;;
21814;SDS011;11069;48.988;8.450;2023-12-22T01:12:00;6.38;;;2.03;;
21814;SDS011;11069;48.988;8.450;2023-12-22T01:14:28;5.45;;;1.70;;
21814;SDS011;11069;48.988;8.450;2023-12-22T01:16:53;4.57;;;1.58;;
21814;SDS011;11069;48.988;8.450;2023-12-22T01:19:19;4.97;;;1.70;;
21814;SDS011;11069;48.988;8.450;2023-12-22T01:21:45;5.68;;;1.67;;
21814;SDS011;11069;48.988;8.450;2023-12-22T01:24:11;4.63;;;1.83;;
21814;SDS011;11069;48.988;8.450;2023-12-22T01:26:37;5.05;;;1.42;;
21814;SDS011;11069;48.988;8.450;2023-12-22T01:29:02;5.75;;;1.60;;
21814;SDS011;11069;48.988;8.450;2023-12-22T01:31:28;3.20;;;1.30;;
21814;SDS011;11069;48.988;8.450;2023-12-22T01:33:54;7.55;;;1.85;;
21814;SDS011;11069;48.988;8.450;2023-12-22T01:36:19;6.18;;;1.80;;
21814;SDS011;11069;48.988;8.450;2023-12-22T01:38:45;4.00;;;1.48;;
21814;SDS011;11069;48.988;8.450;2023-12-22T01:41:11;2.75;;;1.20;;
21814;SDS011;11069;48.988;8.450;2023-12-22T01:43:36;3.13;;;1.20;;
21814;SDS011;11069;48.988;8.450;2023-12-22T01:46:02;3.58;;;1.17;;
21814;SDS011;11069;48.988;8.450;2023-12-22T01:48:28;1.50;;;0.95;;
21814;SDS011;11069;48.988;8.450;2023-12-22T01:50:54;2.78;;;1.30;;
21814;SDS011;11069;48.988;8.450;2023-12-22T01:53:21;3.17;;;1.20;;
21814;SDS011;11069;48.988;8.450;2023-12-22T01:55:49;3.90;;;1.25;;
21814;SDS011;11069;48.988;8.450;2023-12-22T01:58:17;4.00;;;1.48;;
21814;SDS011;11069;48.988;8.450;2023-12-22T02:00:43;2.38;;;1.30;;
21814;SDS011;11069;48.988;8.450;2023-12-22T02:03:09;6.40;;;1.60;;
21814;SDS011;11069;48.988;8.450;2023-12-22T02:05:35;5.05;;;1.65;;
21814;SDS011;11069;48.988;8.450;2023-12-22T02:08:01;4.07;;;1.35;;
21814;SDS011;11069;48.988;8.450;2023-12-22T02:10:27;2.97;;;1.30;;
21814;SDS011;11069;48.988;8.450;2023-12-22T02:12:52;3.03;;;1.20;;
21814;SDS011;11069;48.988;8.450;2023-12-22T02:15:18;6.30;;;1.50;;
21814;SDS011;11069;48.988;8.450;2023-12-22T02:20:25;3.22;;;1.50;;
21814;SDS011;11069;48.988;8.450;2023-12-22T02:22:54;3.58;;;1.60;;
21814;SDS011;11069;48.988;8.450;2023-12-22T02:25:19;6.35;;;1.65;;
21814;SDS011;11069;48.988;8.450;2023-12-22T02:27:49;5.68;;;1.90;;
21814;SDS011;11069;48.988;8.450;2023-12-22T02:33:06;7.90;;;2.13;;
21814;SDS011;11069;48.988;8.450;2023-12-22T02:35:35;5.72;;;1.80;;
21814;SDS011;11069;48.988;8.450;2023-12-22T02:38:03;8.57;;;2.10;;
21814;SDS011;11069;48.988;8.450;2023-12-22T02:40:30;6.47;;;1.70;;
21814;SDS011;11069;48.988;8.450;2023-12-22T02:42:58;5.18;;;1.83;;
21814;SDS011;11069;48.988;8.450;2023-12-22T02:45:25;5.43;;;2.10;;
21814;SDS011;11069;48.988;8.450;2023-12-22T02:47:51;7.82;;;2.45;;
21814;SDS011;11069;48.988;8.450;2023-12-22T02:50:16;8.57;;;2.53;;
21814;SDS011;11069;48.988;8.450;2023-12-22T02:52:42;5.35;;;2.00;;
21814;SDS011;11069;48.988;8.450;2023-12-22T02:55:08;8.23;;;2.67;;
21814;SDS011;11069;48.988;8.450;2023-12-22T02:57:34;5.88;;;2.08;;
21814;SDS011;11069;48.988;8.450;2023-12-22T03:00:00;4.30;;;1.83;;
21814;SDS011;11069;48.988;8.450;2023-12-22T03:02:25;4.63;;;1.73;;
21814;SDS011;11069;48.988;8.450;2023-12-22T03:04:51;5.88;;;1.83;;
21814;SDS011;11069;48.988;8.450;2023-12-22T03:07:17;6.05;;;2.05;;
21814;SDS011;11069;48.988;8.450;2023-12-22T03:09:42;4.97;;;1.45;;
21814;SDS011;11069;48.988;8.450;2023-12-22T03:12:09;5.10;;;1.60;;
21814;SDS011;11069;48.988;8.450;2023-12-22T03:14:35;4.32;;;1.50;;
21814;SDS011;11069;48.988;8.450;2023-12-22T03:17:01;5.68;;;1.77;;
21814;SDS011;11069;48.988;8.450;2023-12-22T03:19:28;5.63;;;1.88;;
21814;SDS011;11069;48.988;8.450;2023-12-22T03:21:53;4.80;;;1.65;;
21814;SDS011;11069;48.988;8.450;2023-12-22T03:24:21;4.47;;;1.70;;
21814;SDS011;11069;48.988;8.450;2023-12-22T03:26:47;4.32;;;1.55;;
21814;SDS011;11069;48.988;8.450;2023-12-22T03:29:14;4.28;;;1.77;;
21814;SDS011;11069;48.988;8.450;2023-12-22T03:31:39;6.45;;;1.63;;
21814;SDS011;11069;48.988;8.450;2023-12-22T03:34:05;5.18;;;1.40;;
21814;SDS011;11069;48.988;8.450;2023-12-22T03:36:31;5.38;;;2.20;;
21814;SDS011;11069;48.988;8.450;2023-12-22T03:38:56;6.22;;;1.52;;
21814;SDS011;11069;48.988;8.450;2023-12-22T03:41:22;5.57;;;1.70;;
21814;SDS011;11069;48.988;8.450;2023-12-22T03:43:48;6.30;;;1.60;;
21814;SDS011;11069;48.988;8.450;2023-12-22T03:46:13;5.57;;;2.00;;
21814;SDS011;11069;48.988;8.450;2023-12-22T03:48:39;5.80;;;2.00;;
21814;SDS011;11069;48.988;8.450;2023-12-22T03:51:05;5.60;;;2.10;;
21814;SDS011;11069;48.988;8.450;2023-12-22T03:53:30;8.10;;;2.10;;
21814;SDS011;11069;48.988;8.450;2023-12-22T03:55:56;7.63;;;2.35;;
21814;SDS011;11069;48.988;8.450;2023-12-22T03:58:21;11.00;;;2.50;;
21814;SDS011;11069;48.988;8.450;2023-12-22T04:00:47;7.80;;;2.25;;
21814;SDS011;11069;48.988;8.450;2023-12-22T04:03:13;8.85;;;2.53;;
21814;SDS011;11069;48.988;8.450;2023-12-22T04:05:39;8.25;;;2.15;;
21814;SDS011;11069;48.988;8.450;2023-12-22T04:08:04;8.05;;;2.63;;
21814;SDS011;11069;48.988;8.450;2023-12-22T04:10:31;8.60;;;2.17;;
21814;SDS011;11069;48.988;8.450;2023-12-22T04:12:56;8.30;;;2.58;;
21814;SDS011;11069;48.988;8.450;2023-12-22T04:15:22;11.57;;;2.45;;
21814;SDS011;11069;48.988;8.450;2023-12-22T04:17:47;6.18;;;2.30;;
21814;SDS011;11069;48.988;8.450;2023-12-22T04:20:14;8.55;;;2.00;;
21814;SDS011;11069;48.988;8.450;2023-12-22T04:22:40;11.45;;;2.40;;
21814;SDS011;11069;48.988;8.450;2023-12-22T04:25:06;10.65;;;2.60;;
21814;SDS011;11069;48.988;8.450;2023-12-22T04:27:32;9.43;;;2.47;;
21814;SDS011;11069;48.988;8.450;2023-12-22T04:29:58;10.52;;;2.83;;
21814;SDS011;11069;48.988;8.450;2023-12-22T04:32:24;9.35;;;2.47;;
21814;SDS011;11069;48.988;8.450;2023-12-22T04:34:49;9.80;;;2.72;;
21814;SDS011;11069;48.988;8.450;2023-12-22T04:37:15;9.32;;;2.08;;
21814;SDS011;11069;48.988;8.450;2023-12-22T04:39:40;12.25;;;2.75;;
21814;SDS011;11069;48.988;8.450;2023-12-22T04:42:06;8.63;;;2.20;;
21814;SDS011;11069;48.988;8.450;2023-12-22T04:44:31;9.95;;;2.72;;
21814;SDS011;11069;48.988;8.450;2023-12-22T04:46:57;7.10;;;2.20;;
21814;SDS011;11069;48.988;8.450;2023-12-22T04:49:22;9.57;;;2.63;;
21814;SDS011;11069;48.988;8.450;2023-12-22T04:51:48;8.07;;;2.15;;
21814;SDS011;11069;48.988;8.450;2023-12-22T04:54:13;8.57;;;2.10;;
21814;SDS011;11069;48.988;8.450;2023-12-22T04:56:39;12.48;;;2.67;;
21814;SDS011;11069;48.988;8.450;2023-12-22T04:59:05;12.20;;;2.17;;
21814;SDS011;11069;48.988;8.450;2023-12-22T05:01:30;8.75;;;2.60;;
21814;SDS011;11069;48.988;8.450;2023-12-22T05:03:56;9.60;;;2.55;;
21814;SDS011;11069;48.988;8.450;2023-12-22T05:06:21;9.02;;;2.63;;
21814;SDS011;11069;48.988;8.450;2023-12-22T05:08:47;9.32;;;2.65;;
21814;SDS011;11069;48.988;8.450;2023-12-22T05:11:12;8.88;;;2.60;;
21814;SDS011;11069;48.988;8.450;2023-12-22T05:13:38;13.43;;;3.40;;
21814;SDS011;11069;48.988;8.450;2023-12-22T05:16:05;11.45;;;3.60;;
21814;SDS011;11069;48.988;8.450;2023-12-22T05:18:31;10.20;;;3.10;;
21814;SDS011;11069;48.988;8.450;2023-12-22T05:20:56;9.63;;;2.88;;
21814;SDS011;11069;48.988;8.450;2023-12-22T05:23:22;12.48;;;3.60;;
21814;SDS011;11069;48.988;8.450;2023-12-22T05:25:47;9.90;;;2.88;;
21814;SDS011;11069;48.988;8.450;2023-12-22T05:28:13;14.57;;;3.28;;
21814;SDS011;11069;48.988;8.450;2023-12-22T05:30:39;15.98;;;3.55;;
21814;SDS011;11069;48.988;8.450;2023-12-22T05:33:04;12.13;;;3.58;;
21814;SDS011;11069;48.988;8.450;2023-12-22T05:35:30;10.65;;;3.47;;
21814;SDS011;11069;48.988;8.450;2023-12-22T05:37:55;11.93;;;3.70;;
21814;SDS011;11069;48.988;8.450;2023-12-22T05:40:21;8.70;;;3.15;;
21814;SDS011;11069;48.988;8.450;2023-12-22T05:42:46;13.88;;;3.40;;
21814;SDS011;11069;48.988;8.450;2023-12-22T05:45:12;12.98;;;3.10;;
21814;SDS011;11069;48.988;8.450;2023-12-22T05:47:38;8.07;;;2.92;;
21814;SDS011;11069;48.988;8.450;2023-12-22T05:50:04;13.30;;;3.42;;
21814;SDS011;11069;48.988;8.450;2023-12-22T05:52:30;10.93;;;3.38;;
21814;SDS011;11069;48.988;8.450;2023-12-22T05:54:56;9.73;;;3.15;;
21814;SDS011;11069;48.988;8.450;2023-12-22T05:57:21;10.07;;;2.83;;
21814;SDS011;11069;48.988;8.450;2023-12-22T05:59:47;11.27;;;2.97;;
21814;SDS011;11069;48.988;8.450;2023-12-22T06:02:12;13.93;;;3.45;;
21814;SDS011;11069;48.988;8.450;2023-12-22T06:04:38;11.85;;;3.33;;
21814;SDS011;11069;48.988;8.450;2023-12-22T06:07:03;9.23;;;3.15;;
21814;SDS011;11069;48.988;8.450;2023-12-22T06:09:29;11.52;;;3.45;;
21814;SDS011;11069;48.988;8.450;2023-12-22T06:11:55;10.48;;;2.90;;
21814;SDS011;11069;48.988;8.450;2023-12-22T06:14:21;11.02;;;3.20;;
21814;SDS011;11069;48.988;8.450;2023-12-22T06:16:46;12.88;;;3.22;;
21814;SDS011;11069;48.988;8.450;2023-12-22T06:19:12;11.45;;;3.28;;
21814;SDS011;11069;48.988;8.450;2023-12-22T06:21:38;9.55;;;2.65;;
21814;SDS011;11069;48.988;8.450;2023-12-22T06:24:04;11.43;;;3.38;;
21814;SDS011;11069;48.988;8.450;2023-12-22T06:26:30;9.48;;;3.33;;
21814;SDS011;11069;48.988;8.450;2023-12-22T06:28:56;8.30;;;2.88;;
21814;SDS011;11069;48.988;8.450;2023-12-22T06:31:22;8.98;;;3.10;;
21814;SDS011;11069;48.988;8.450;2023-12-22T06:33:48;15.05;;;3.95;;
21814;SDS011;11069;48.988;8.450;2023-12-22T06:36:18;12.80;;;3.13;;
21814;SDS011;11069;48.988;8.450;2023-12-22T06:38:44;12.15;;;3.25;;
21814;SDS011;11069;48.988;8.450;2023-12-22T06:41:17;11.95;;;3.45;;
21814;SDS011;11069;48.988;8.450;2023-12-22T06:43:47;10.98;;;3.60;;
21814;SDS011;11069;48.988;8.450;2023-12-22T06:46:19;11.65;;;3.00;;
21814;SDS011;11069;48.988;8.450;2023-12-22T06:48:53;10.13;;;2.88;;
21814;SDS011;11069;48.988;8.450;2023-12-22T06:51:20;15.57;;;3.78;;
21814;SDS011;11069;48.988;8.450;2023-12-22T06:53:47;14.02;;;3.33;;
21814;SDS011;11069;48.988;8.450;2023-12-22T06:56:16;16.17;;;3.70;;
21814;SDS011;11069;48.988;8.450;2023-12-22T06:58:43;12.90;;;3.65;;
21814;SDS011;11069;48.988;8.450;2023-12-22T07:01:08;16.15;;;3.40;;
21814;SDS011;11069;48.988;8.450;2023-12-22T07:03:34;16.92;;;4.03;;
21814;SDS011;11069;48.988;8.450;2023-12-22T07:06:02;10.20;;;3.40;;
21814;SDS011;11069;48.988;8.450;2023-12-22T07:08:28;13.52;;;3.40;;
21814;SDS011;11069;48.988;8.450;2023-12-22T07:10:53;11.98;;;3.55;;
21814;SDS011;11069;48.988;8.450;2023-12-22T07:13:19;11.70;;;3.53;;
21814;SDS011;11069;48.988;8.450;2023-12-22T07:15:44;18.65;;;4.35;;
21814;SDS011;11069;48.988;8.450;2023-12-22T07:18:10;14.35;;;3.53;;
21814;SDS011;11069;48.988;8.450;2023-12-22T07:20:35;12.98;;;3.88;;
21814;SDS011;11069;48.988;8.450;2023-12-22T07:23:01;16.13;;;4.03;;
21814;SDS011;11069;48.988;8.450;2023-12-22T07:25:26;17.02;;;4.15;;
21814;SDS011;11069;48.988;8.450;2023-12-22T07:27:52;14.50;;;3.65;;
21814;SDS011;11069;48.988;8.450;2023-12-22T07:30:18;14.20;;;3.75;;
21814;SDS011;11069;48.988;8.450;2023-12-22T07:32:44;14.23;;;3.70;;
21814;SDS011;11069;48.988;8.450;2023-12-22T07:35:12;19.35;;;4.55;;
21814;SDS011;11069;48.988;8.450;2023-12-22T07:37:38;17.13;;;3.53;;
21814;SDS011;11069;48.988;8.450;2023-12-22T07:40:03;16.25;;;3.65;;
21814;SDS011;11069;48.988;8.450;2023-12-22T07:42:29;16.58;;;3.88;;
21814;SDS011;11069;48.988;8.450;2023-12-22T07:44:55;15.32;;;3.95;;
21814;SDS011;11069;48.988;8.450;2023-12-22T07:47:20;16.92;;;3.97;;
21814;SDS011;11069;48.988;8.450;2023-12-22T07:49:46;15.85;;;3.92;;
21814;SDS011;11069;48.988;8.450;2023-12-22T07:52:14;17.58;;;4.22;;
21814;SDS011;11069;48.988;8.450;2023-12-22T07:54:40;21.65;;;4.60;;
21814;SDS011;11069;48.988;8.450;2023-12-22T07:57:06;20.13;;;4.25;;
21814;SDS011;11069;48.988;8.450;2023-12-22T07:59:31;17.92;;;4.00;;
21814;SDS011;11069;48.988;8.450;2023-12-22T08:01:57;20.13;;;4.55;;
21814;SDS011;11069;48.988;8.450;2023-12-22T08:04:22;24.00;;;5.38;;
21814;SDS011;11069;48.988;8.450;2023-12-22T08:06:48;26.75;;;5.25;;
21814;SDS011;11069;48.988;8.450;2023-12-22T08:09:13;20.75;;;4.72;;
21814;SDS011;11069;48.988;8.450;2023-12-22T08:11:39;19.38;;;4.90;;
21814;SDS011;11069;48.988;8.450;2023-12-22T08:14:05;17.80;;;5.07;;
21814;SDS011;11069;48.988;8.450;2023-12-22T08:16:31;17.85;;;4.40;;
21814;SDS011;11069;48.988;8.450;2023-12-22T08:18:57;19.88;;;5.00;;
21814;SDS011;11069;48.988;8.450;2023-12-22T08:21:23;21.98;;;4.50;;
21814;SDS011;11069;48.988;8.450;2023-12-22T08:23:48;22.10;;;4.72;;
21814;SDS011;11069;48.988;8.450;2023-12-22T08:26:14;17.00;;;4.85;;
21814;SDS011;11069;48.988;8.450;2023-12-22T08:28:42;14.98;;;4.43;;
21814;SDS011;11069;48.988;8.450;2023-12-22T08:31:07;19.02;;;4.38;;
21814;SDS011;11069;48.988;8.450;2023-12-22T08:33:33;22.20;;;5.45;;
21814;SDS011;11069;48.988;8.450;2023-12-22T08:35:58;18.02;;;4.57;;
21814;SDS011;11069;48.988;8.450;2023-12-22T08:38:24;18.20;;;4.50;;
21814;SDS011;11069;48.988;8.450;2023-12-22T08:40:51;16.80;;;4.95;;
21814;SDS011;11069;48.988;8.450;2023-12-22T08:43:17;19.15;;;4.70;;
21814;SDS011;11069;48.988;8.450;2023-12-22T08:45:42;22.77;;;5.35;;
21814;SDS011;11069;48.988;8.450;2023-12-22T08:48:08;16.10;;;4.30;;
21814;SDS011;11069;48.988;8.450;2023-12-22T08:50:34;18.42;;;4.20;;
21814;SDS011;11069;48.988;8.450;2023-12-22T08:52:59;17.20;;;4.88;;
21814;SDS011;11069;48.988;8.450;2023-12-22T08:55:25;18.63;;;3.97;;
21814;SDS011;11069;48.988;8.450;2023-12-22T08:57:51;17.92;;;3.97;;
21814;SDS011;11069;48.988;8.450;2023-12-22T09:00:16;18.50;;;4.80;;
21814;SDS011;11069;48.988;8.450;2023-12-22T09:02:42;17.55;;;3.97;;
21814;SDS011;11069;48.988;8.450;2023-12-22T09:05:08;21.90;;;5.25;;
21814;SDS011;11069;48.988;8.450;2023-12-22T09:07:33;14.40;;;3.95;;
21814;SDS011;11069;48.988;8.450;2023-12-22T09:09:59;20.83;;;4.28;;
21814;SDS011;11069;48.988;8.450;2023-12-22T09:12:24;18.00;;;4.20;;
21814;SDS011;11069;48.988;8.450;2023-12-22T09:14:50;22.33;;;4.47;;
21814;SDS011;11069;48.988;8.450;2023-12-22T09:17:15;22.23;;;4.78;;
21814;SDS011;11069;48.988;8.450;2023-12-22T09:19:41;17.20;;;4.45;;
21814;SDS011;11069;48.988;8.450;2023-12-22T09:22:08;15.75;;;4.03;;
21814;SDS011;11069;48.988;8.450;2023-12-22T09:24:33;18.30;;;4.57;;
21814;SDS011;11069;48.988;8.450;2023-12-22T09:26:59;16.88;;;4.65;;
21814;SDS011;11069;48.988;8.450;2023-12-22T09:29:28;16.88;;;4.40;;
21814;SDS011;11069;48.988;8.450;2023-12-22T09:31:55;19.10;;;4.70;;
21814;SDS011;11069;48.988;8.450;2023-12-22T09:34:21;17.92;;;4.65;;
21814;SDS011;11069;48.988;8.450;2023-12-22T09:36:46;18.40;;;4.20;;
21814;SDS011;11069;48.988;8.450;2023-12-22T09:39:12;22.38;;;4.50;;
21814;SDS011;11069;48.988;8.450;2023-12-22T09:41:41;20.90;;;4.50;;
21814;SDS011;11069;48.988;8.450;2023-12-22T09:44:12;14.95;;;4.20;;
21814;SDS011;11069;48.988;8.450;2023-12-22T09:46:39;18.42;;;4.68;;
21814;SDS011;11069;48.988;8.450;2023-12-22T09:49:05;18.73;;;4.90;;
21814;SDS011;11069;48.988;8.450;2023-12-22T09:51:32;15.32;;;4.40;;
21814;SDS011;11069;48.988;8.450;2023-12-22T09:53:59;17.67;;;4.68;;
21814;SDS011;11069;48.988;8.450;2023-12-22T09:56:27;19.50;;;4.70;;
21814;SDS011;11069;48.988;8.450;2023-12-22T09:58:54;17.42;;;5.05;;
21814;SDS011;11069;48.988;8.450;2023-12-22T10:01:21;17.05;;;4.40;;
21814;SDS011;11069;48.988;8.450;2023-12-22T10:03:48;18.50;;;4.80;;
21814;SDS011;11069;48.988;8.450;2023-12-22T10:06:14;16.70;;;4.15;;
21814;SDS011;11069;48.988;8.450;2023-12-22T10:08:42;19.38;;;4.22;;
21814;SDS011;11069;48.988;8.450;2023-12-22T10:11:08;20.42;;;4.47;;
21814;SDS011;11069;48.988;8.450;2023-12-22T10:13:35;17.27;;;4.32;;
21814;SDS011;11069;48.988;8.450;2023-12-22T10:16:02;18.75;;;4.60;;
21814;SDS011;11069;48.988;8.450;2023-12-22T10:18:30;20.65;;;4.57;;
21814;SDS011;11069;48.988;8.450;2023-12-22T10:20:56;21.92;;;4.80;;
21814;SDS011;11069;48.988;8.450;2023-12-22T10:23:22;20.80;;;5.00;;
21814;SDS011;11069;48.988;8.450;2023-12-22T10:25:47;22.02;;;4.45;;
21814;SDS011;11069;48.988;8.450;2023-12-22T10:28:13;17.13;;;4.80;;
21814;SDS011;11069;48.988;8.450;2023-12-22T10:30:40;16.13;;;4.55;;
21814;SDS011;11069;48.988;8.450;2023-12-22T10:33:06;17.48;;;4.55;;
21814;SDS011;11069;48.988;8.450;2023-12-22T10:35:32;21.05;;;4.10;;
21814;SDS011;11069;48.988;8.450;2023-12-22T10:37:58;17.48;;;4.38;;
21814;SDS011;11069;48.988;8.450;2023-12-22T10:40:25;16.40;;;4.80;;
21814;SDS011;11069;48.988;8.450;2023-12-22T10:42:50;21.50;;;4.55;;
21814;SDS011;11069;48.988;8.450;2023-12-22T10:45:17;27.23;;;4.57;;
21814;SDS011;11069;48.988;8.450;2023-12-22T10:47:43;21.02;;;5.00;;
21814;SDS011;11069;48.988;8.450;2023-12-22T10:50:11;20.15;;;4.35;;
21814;SDS011;11069;48.988;8.450;2023-12-22T10:52:38;15.20;;;4.13;;
21814;SDS011;11069;48.988;8.450;2023-12-22T10:55:04;21.67;;;4.95;;
21814;SDS011;11069;48.988;8.450;2023-12-22T10:57:31;21.67;;;4.85;;
21814;SDS011;11069;48.988;8.450;2023-12-22T11:00:02;22.52;;;4.63;;
21814;SDS011;11069;48.988;8.450;2023-12-22T11:02:30;21.38;;;5.18;;
21814;SDS011;11069;48.988;8.450;2023-12-22T11:05:05;19.35;;;4.88;;
21814;SDS011;11069;48.988;8.450;2023-12-22T11:07:35;19.35;;;4.57;;
21814;SDS011;11069;48.988;8.450;2023-12-22T11:10:03;20.08;;;5.13;;
21814;SDS011;11069;48.988;8.450;2023-12-22T11:12:31;19.73;;;5.07;;
21814;SDS011;11069;48.988;8.450;2023-12-22T11:15:01;19.05;;;5.15;;
21814;SDS011;11069;48.988;8.450;2023-12-22T11:17:28;20.83;;;4.47;;
21814;SDS011;11069;48.988;8.450;2023-12-22T11:19:55;19.75;;;4.28;;
21814;SDS011;11069;48.988;8.450;2023-12-22T11:22:21;15.52;;;4.90;;
21814;SDS011;11069;48.988;8.450;2023-12-22T11:24:48;15.55;;;4.32;;
21814;SDS011;11069;48.988;8.450;2023-12-22T11:27:17;14.25;;;3.95;;
21814;SDS011;11069;48.988;8.450;2023-12-22T11:29:47;16.58;;;3.65;;
21814;SDS011;11069;48.988;8.450;2023-12-22T11:32:17;17.80;;;4.28;;
21814;SDS011;11069;48.988;8.450;2023-12-22T11:34:44;18.48;;;4.68;;
21814;SDS011;11069;48.988;8.450;2023-12-22T11:37:11;14.73;;;4.30;;
21814;SDS011;11069;48.988;8.450;2023-12-22T11:39:38;13.50;;;3.75;;
21814;SDS011;11069;48.988;8.450;2023-12-22T11:42:13;15.32;;;3.95;;
21814;SDS011;11069;48.988;8.450;2023-12-22T11:44:42;17.83;;;4.25;;
21814;SDS011;11069;48.988;8.450;2023-12-22T11:47:09;12.95;;;4.03;;
21814;SDS011;11069;48.988;8.450;2023-12-22T11:49:36;10.35;;;3.88;;
21814;SDS011;11069;48.988;8.450;2023-12-22T11:52:12;12.35;;;3.33;;
21814;SDS011;11069;48.988;8.450;2023-12-22T11:54:45;13.90;;;3.67;;
21814;SDS011;11069;48.988;8.450;2023-12-22T11:57:37;10.15;;;3.03;;
21814;SDS011;11069;48.988;8.450;2023-12-22T12:03:02;11.43;;;3.28;;
21814;SDS011;11069;48.988;8.450;2023-12-22T12:05:31;10.85;;;3.10;;
21814;SDS011;11069;48.988;8.450;2023-12-22T12:08:02;10.23;;;3.50;;
21814;SDS011;11069;48.988;8.450;2023-12-22T12:13:04;10.70;;;3.78;;
21814;SDS011;11069;48.988;8.450;2023-12-22T12:15:30;13.25;;;3.80;;
21814;SDS011;11069;48.988;8.450;2023-12-22T12:17:59;11.40;;;4.13;;
21814;SDS011;11069;48.988;8.450;2023-12-22T12:20:25;11.55;;;3.55;;
21814;SDS011;11069;48.988;8.450;2023-12-22T12:22:52;5.93;;;3.10;;
21814;SDS011;11069;48.988;8.450;2023-12-22T12:25:18;9.20;;;2.95;;
21814;SDS011;11069;48.988;8.450;2023-12-22T12:27:50;8.82;;;3.45;;
21814;SDS011;11069;48.988;8.450;2023-12-22T12:30:25;12.45;;;3.40;;
21814;SDS011;11069;48.988;8.450;2023-12-22T12:32:51;9.23;;;3.30;;
21814;SDS011;11069;48.988;8.450;2023-12-22T12:35:18;6.95;;;3.28;;
21814;SDS011;11069;48.988;8.450;2023-12-22T12:37:44;9.82;;;3.70;;
21814;SDS011;11069;48.988;8.450;2023-12-22T12:40:11;11.55;;;3.45;;
21814;SDS011;11069;48.988;8.450;2023-12-22T12:42:37;9.18;;;3.67;;
21814;SDS011;11069;48.988;8.450;2023-12-22T12:45:07;9.75;;;4.15;;
21814;SDS011;11069;48.988;8.450;2023-12-22T12:47:33;14.10;;;3.83;;
21814;SDS011;11069;48.988;8.450;2023-12-22T12:49:59;11.93;;;3.58;;
21814;SDS011;11069;48.988;8.450;2023-12-22T12:52:25;10.27;;;3.85;;
21814;SDS011;11069;48.988;8.450;2023-12-22T12:54:51;10.48;;;3.80;;
21814;SDS011;11069;48.988;8.450;2023-12-22T12:57:17;11.95;;;3.50;;
21814;SDS011;11069;48.988;8.450;2023-12-22T12:59:46;8.52;;;3.30;;
21814;SDS011;11069;48.988;8.450;2023-12-22T13:02:16;10.30;;;3.35;;
21814;SDS011;11069;48.988;8.450;2023-12-22T13:04:42;7.47;;;3.15;;
21814;SDS011;11069;48.988;8.450;2023-12-22T13:07:08;7.22;;;2.55;;
21814;SDS011;11069;48.988;8.450;2023-12-22T13:09:35;6.10;;;2.47;;
21814;SDS011;11069;48.988;8.450;2023-12-22T13:12:01;5.40;;;2.28;;
21814;SDS011;11069;48.988;8.450;2023-12-22T13:14:28;5.68;;;2.22;;
21814;SDS011;11069;48.988;8.450;2023-12-22T13:16:54;5.40;;;1.98;;
21814;SDS011;11069;48.988;8.450;2023-12-22T13:19:21;3.72;;;2.00;;
21814;SDS011;11069;48.988;8.450;2023-12-22T13:21:49;7.00;;;2.15;;
21814;SDS011;11069;48.988;8.450;2023-12-22T13:24:15;3.75;;;1.70;;
21814;SDS011;11069;48.988;8.450;2023-12-22T13:26:42;4.40;;;2.10;;
21814;SDS011;11069;48.988;8.450;2023-12-22T13:29:09;3.22;;;2.00;;
21814;SDS011;11069;48.988;8.450;2023-12-22T13:31:36;3.65;;;2.00;;
21814;SDS011;11069;48.988;8.450;2023-12-22T13:34:12;4.07;;;1.80;;
21814;SDS011;11069;48.988;8.450;2023-12-22T13:36:39;2.05;;;1.63;;
21814;SDS011;11069;48.988;8.450;2023-12-22T13:39:07;2.38;;;1.60;;
21814;SDS011;11069;48.988;8.450;2023-12-22T13:41:34;2.08;;;1.65;;
21814;SDS011;11069;48.988;8.450;2023-12-22T13:44:10;1.73;;;1.58;;
21814;SDS011;11069;48.988;8.450;2023-12-22T13:46:36;3.40;;;1.50;;
21814;SDS011;11069;48.988;8.450;2023-12-22T13:49:02;1.38;;;1.27;;
21814;SDS011;11069;48.988;8.450;2023-12-22T13:51:39;1.63;;;1.27;;
21814;SDS011;11069;48.988;8.450;2023-12-22T13:54:12;1.40;;;1.08;;
21814;SDS011;11069;48.988;8.450;2023-12-22T13:56:38;1.40;;;1.30;;
21814;SDS011;11069;48.988;8.450;2023-12-22T13:59:08;1.30;;;1.20;;
21814;SDS011;11069;48.988;8.450;2023-12-22T14:01:35;1.30;;;1.20;;
21814;SDS011;11069;48.988;8.450;2023-12-22T14:04:01;2.15;;;1.23;;
21814;SDS011;11069;48.988;8.450;2023-12-22T14:06:28;2.38;;;1.27;;
21814;SDS011;11069;48.988;8.450;2023-12-22T14:08:54;2.58;;;1.33;;
21814;SDS011;11069;48.988;8.450;2023-12-22T14:11:21;1.27;;;1.17;;
21814;SDS011;11069;48.988;8.450;2023-12-22T14:13:46;1.45;;;1.30;;
21814;SDS011;11069;48.988;8.450;2023-12-22T14:16:12;1.58;;;1.10;;
21814;SDS011;11069;48.988;8.450;2023-12-22T14:18:40;1.38;;;1.20;;
21814;SDS011;11069;48.988;8.450;2023-12-22T14:21:06;1.25;;;1.02;;
21814;SDS011;11069;48.988;8.450;2023-12-22T14:23:31;1.42;;;1.33;;
21814;SDS011;11069;48.988;8.450;2023-12-22T14:25:57;1.67;;;1.20;;
21814;SDS011;11069;48.988;8.450;2023-12-22T14:28:23;1.55;;;1.30;;
21814;SDS011;11069;48.988;8.450;2023-12-22T14:30:48;1.60;;;1.15;;
21814;SDS011;11069;48.988;8.450;2023-12-22T14:33:14;1.70;;;1.08;;
21814;SDS011;11069;48.988;8.450;2023-12-22T14:35:40;1.65;;;1.20;;
21814;SDS011;11069;48.988;8.450;2023-12-22T14:38:06;1.30;;;1.05;;
21814;SDS011;11069;48.988;8.450;2023-12-22T14:40:31;1.80;;;0.93;;
21814;SDS011;11069;48.988;8.450;2023-12-22T14:42:57;1.80;;;0.90;;
21814;SDS011;11069;48.988;8.450;2023-12-22T14:45:24;1.52;;;1.00;;
21814;SDS011;11069;48.988;8.450;2023-12-22T14:47:50;1.75;;;1.02;;